sensor_id;sensor_type;location;lat;lon;timestamp;P1;durP1;ratioP1;P2;durP2;ratioP2
9208;SDS011;4639;48.862;9.188;2023-02-15T00:01:25;36.67;;;25.42;;
9208;SDS011;4639;48.862;9.188;2023-02-15T00:03:51;35.13;;;24.77;;
9208;SDS011;4639;48.862;9.188;2023-02-15T00:06:17;35.50;;;25.30;;
9208;SDS011;4639;48.862;9.188;2023-02-15T00:08:44;37.05;;;24.95;;
9208;SDS011;4639;48.862;9.188;2023-02-15T00:11:10;39.78;;;25.17;;
9208;SDS011;4639;48.862;9.188;2023-02-15T00:13:40;39.17;;;25.42;;
9208;SDS011;4639;48.862;9.188;2023-02-15T00:16:07;37.47;;;26.85;;
9208;SDS011;4639;48.862;9.188;2023-02-15T00:18:37;37.88;;;26.08;;
9208;SDS011;4639;48.862;9.188;2023-02-15T00:21:06;35.30;;;25.17;;
9208;SDS011;4639;48.862;9.188;2023-02-15T00:23:34;36.58;;;24.83;;
9208;SDS011;4639;48.862;9.188;2023-02-15T00:26:03;36.13;;;23.95;;
9208;SDS011;4639;48.862;9.188;2023-02-15T00:28:33;39.10;;;25.92;;
9208;SDS011;4639;48.862;9.188;2023-02-15T00:31:03;42.22;;;25.85;;
9208;SDS011;4639;48.862;9.188;2023-02-15T00:33:32;44.65;;;27.67;;
9208;SDS011;4639;48.862;9.188;2023-02-15T00:35:59;37.67;;;25.42;;
9208;SDS011;4639;48.862;9.188;2023-02-15T00:38:26;36.63;;;25.75;;
9208;SDS011;4639;48.862;9.188;2023-02-15T00:40:56;39.70;;;25.90;;
9208;SDS011;4639;48.862;9.188;2023-02-15T00:43:23;36.38;;;26.75;;
9208;SDS011;4639;48.862;9.188;2023-02-15T00:45:50;42.28;;;26.25;;
9208;SDS011;4639;48.862;9.188;2023-02-15T00:48:15;37.65;;;25.23;;
9208;SDS011;4639;48.862;9.188;2023-02-15T00:50:44;40.65;;;25.67;;
9208;SDS011;4639;48.862;9.188;2023-02-15T00:53:20;35.28;;;25.60;;
9208;SDS011;4639;48.862;9.188;2023-02-15T00:55:46;37.55;;;25.38;;
9208;SDS011;4639;48.862;9.188;2023-02-15T00:58:14;33.85;;;24.83;;
9208;SDS011;4639;48.862;9.188;2023-02-15T01:00:40;34.50;;;24.33;;
9208;SDS011;4639;48.862;9.188;2023-02-15T01:03:08;34.95;;;25.60;;
9208;SDS011;4639;48.862;9.188;2023-02-15T01:05:33;37.28;;;26.15;;
9208;SDS011;4639;48.862;9.188;2023-02-15T01:07:59;37.55;;;24.40;;
9208;SDS011;4639;48.862;9.188;2023-02-15T01:10:25;36.90;;;24.48;;
9208;SDS011;4639;48.862;9.188;2023-02-15T01:12:52;37.58;;;25.05;;
9208;SDS011;4639;48.862;9.188;2023-02-15T01:15:19;32.50;;;23.55;;
9208;SDS011;4639;48.862;9.188;2023-02-15T01:17:45;33.28;;;24.15;;
9208;SDS011;4639;48.862;9.188;2023-02-15T01:20:16;33.08;;;22.70;;
9208;SDS011;4639;48.862;9.188;2023-02-15T01:22:43;32.47;;;22.95;;
9208;SDS011;4639;48.862;9.188;2023-02-15T01:25:08;34.70;;;23.75;;
9208;SDS011;4639;48.862;9.188;2023-02-15T01:27:34;33.58;;;22.95;;
9208;SDS011;4639;48.862;9.188;2023-02-15T01:30:00;34.40;;;22.90;;
9208;SDS011;4639;48.862;9.188;2023-02-15T01:32:25;32.67;;;22.80;;
9208;SDS011;4639;48.862;9.188;2023-02-15T01:34:51;35.63;;;24.98;;
9208;SDS011;4639;48.862;9.188;2023-02-15T01:37:17;34.67;;;23.67;;
9208;SDS011;4639;48.862;9.188;2023-02-15T01:39:43;38.10;;;24.33;;
9208;SDS011;4639;48.862;9.188;2023-02-15T01:42:11;35.13;;;25.20;;
9208;SDS011;4639;48.862;9.188;2023-02-15T01:47:12;36.25;;;24.70;;
9208;SDS011;4639;48.862;9.188;2023-02-15T01:49:45;33.67;;;24.77;;
9208;SDS011;4639;48.862;9.188;2023-02-15T01:52:12;31.80;;;23.27;;
9208;SDS011;4639;48.862;9.188;2023-02-15T01:54:42;32.83;;;23.75;;
9208;SDS011;4639;48.862;9.188;2023-02-15T01:57:11;35.92;;;24.83;;
9208;SDS011;4639;48.862;9.188;2023-02-15T01:59:40;30.88;;;22.30;;
9208;SDS011;4639;48.862;9.188;2023-02-15T02:02:10;33.00;;;23.30;;
9208;SDS011;4639;48.862;9.188;2023-02-15T02:04:43;37.28;;;24.42;;
9208;SDS011;4639;48.862;9.188;2023-02-15T02:07:16;33.75;;;23.52;;
9208;SDS011;4639;48.862;9.188;2023-02-15T02:09:44;35.60;;;25.30;;
9208;SDS011;4639;48.862;9.188;2023-02-15T02:12:10;36.25;;;25.05;;
9208;SDS011;4639;48.862;9.188;2023-02-15T02:14:36;34.55;;;24.60;;
9208;SDS011;4639;48.862;9.188;2023-02-15T02:17:22;36.88;;;24.98;;
9208;SDS011;4639;48.862;9.188;2023-02-15T02:27:43;36.47;;;25.85;;
9208;SDS011;4639;48.862;9.188;2023-02-15T02:41:36;45.27;;;27.53;;
9208;SDS011;4639;48.862;9.188;2023-02-15T02:49:39;47.87;;;29.50;;
9208;SDS011;4639;48.862;9.188;2023-02-15T02:52:52;50.53;;;30.70;;
9208;SDS011;4639;48.862;9.188;2023-02-15T02:55:03;47.33;;;30.83;;
9208;SDS011;4639;48.862;9.188;2023-02-15T02:57:34;60.03;;;32.67;;
9208;SDS011;4639;48.862;9.188;2023-02-15T03:00:03;65.30;;;33.37;;
9208;SDS011;4639;48.862;9.188;2023-02-15T03:02:31;72.13;;;35.73;;
9208;SDS011;4639;48.862;9.188;2023-02-15T03:05:04;84.60;;;35.13;;
9208;SDS011;4639;48.862;9.188;2023-02-15T03:07:34;71.10;;;34.43;;
9208;SDS011;4639;48.862;9.188;2023-02-15T03:10:02;84.33;;;36.80;;
9208;SDS011;4639;48.862;9.188;2023-02-15T03:12:34;71.70;;;34.97;;
9208;SDS011;4639;48.862;9.188;2023-02-15T03:15:25;75.70;;;33.10;;
9208;SDS011;4639;48.862;9.188;2023-02-15T03:18:15;73.33;;;32.07;;
9208;SDS011;4639;48.862;9.188;2023-02-15T03:20:45;62.30;;;29.60;;
9208;SDS011;4639;48.862;9.188;2023-02-15T03:23:13;67.57;;;34.47;;
9208;SDS011;4639;48.862;9.188;2023-02-15T03:25:58;61.27;;;33.47;;
9208;SDS011;4639;48.862;9.188;2023-02-15T03:28:35;72.97;;;33.40;;
9208;SDS011;4639;48.862;9.188;2023-02-15T03:31:06;55.23;;;30.23;;
9208;SDS011;4639;48.862;9.188;2023-02-15T03:33:35;62.67;;;33.13;;
9208;SDS011;4639;48.862;9.188;2023-02-15T03:36:15;61.70;;;33.93;;
9208;SDS011;4639;48.862;9.188;2023-02-15T03:39:12;59.47;;;32.63;;
9208;SDS011;4639;48.862;9.188;2023-02-15T03:41:57;56.23;;;31.77;;
9208;SDS011;4639;48.862;9.188;2023-02-15T03:44:30;67.90;;;31.80;;
9208;SDS011;4639;48.862;9.188;2023-02-15T03:47:04;92.27;;;32.97;;
9208;SDS011;4639;48.862;9.188;2023-02-15T03:49:39;140.73;;;36.70;;
9208;SDS011;4639;48.862;9.188;2023-02-15T03:52:10;179.73;;;39.37;;
9208;SDS011;4639;48.862;9.188;2023-02-15T03:54:37;193.60;;;40.57;;
9208;SDS011;4639;48.862;9.188;2023-02-15T03:57:12;138.93;;;35.03;;
9208;SDS011;4639;48.862;9.188;2023-02-15T03:59:57;134.13;;;35.87;;
9208;SDS011;4639;48.862;9.188;2023-02-15T04:02:52;144.73;;;33.40;;
9208;SDS011;4639;48.862;9.188;2023-02-15T04:05:32;203.47;;;41.27;;
9208;SDS011;4639;48.862;9.188;2023-02-15T04:07:58;175.77;;;33.90;;
9208;SDS011;4639;48.862;9.188;2023-02-15T04:10:23;134.37;;;29.63;;
9208;SDS011;4639;48.862;9.188;2023-02-15T04:13:07;163.07;;;31.30;;
9208;SDS011;4639;48.862;9.188;2023-02-15T04:15:33;158.53;;;35.33;;
9208;SDS011;4639;48.862;9.188;2023-02-15T04:18:17;256.17;;;42.93;;
9208;SDS011;4639;48.862;9.188;2023-02-15T04:20:43;231.07;;;37.53;;
9208;SDS011;4639;48.862;9.188;2023-02-15T04:23:28;218.23;;;38.83;;
9208;SDS011;4639;48.862;9.188;2023-02-15T04:26:12;171.57;;;35.97;;
9208;SDS011;4639;48.862;9.188;2023-02-15T04:28:38;125.93;;;35.23;;
9208;SDS011;4639;48.862;9.188;2023-02-15T04:31:03;189.57;;;34.67;;
9208;SDS011;4639;48.862;9.188;2023-02-15T04:33:29;210.10;;;36.90;;
9208;SDS011;4639;48.862;9.188;2023-02-15T04:35:54;278.77;;;44.13;;
9208;SDS011;4639;48.862;9.188;2023-02-15T04:38:21;133.13;;;32.80;;
9208;SDS011;4639;48.862;9.188;2023-02-15T04:40:50;175.03;;;37.97;;
9208;SDS011;4639;48.862;9.188;2023-02-15T04:43:17;196.90;;;37.90;;
9208;SDS011;4639;48.862;9.188;2023-02-15T04:45:47;215.90;;;36.27;;
9208;SDS011;4639;48.862;9.188;2023-02-15T04:48:16;192.13;;;34.87;;
9208;SDS011;4639;48.862;9.188;2023-02-15T04:50:43;212.07;;;37.60;;
9208;SDS011;4639;48.862;9.188;2023-02-15T04:53:08;258.20;;;39.13;;
9208;SDS011;4639;48.862;9.188;2023-02-15T04:55:34;243.10;;;38.63;;
9208;SDS011;4639;48.862;9.188;2023-02-15T04:58:00;228.20;;;36.83;;
9208;SDS011;4639;48.862;9.188;2023-02-15T05:00:25;226.43;;;37.17;;
9208;SDS011;4639;48.862;9.188;2023-02-15T05:02:52;288.70;;;40.80;;
9208;SDS011;4639;48.862;9.188;2023-02-15T05:05:18;182.73;;;40.57;;
9208;SDS011;4639;48.862;9.188;2023-02-15T05:07:43;311.27;;;43.60;;
9208;SDS011;4639;48.862;9.188;2023-02-15T05:10:09;277.93;;;45.53;;
9208;SDS011;4639;48.862;9.188;2023-02-15T05:12:34;151.57;;;36.80;;
9208;SDS011;4639;48.862;9.188;2023-02-15T05:15:00;292.77;;;40.40;;
9208;SDS011;4639;48.862;9.188;2023-02-15T05:17:25;346.80;;;43.40;;
9208;SDS011;4639;48.862;9.188;2023-02-15T05:19:51;141.13;;;33.37;;
9208;SDS011;4639;48.862;9.188;2023-02-15T05:22:16;145.77;;;37.53;;
9208;SDS011;4639;48.862;9.188;2023-02-15T05:24:42;160.73;;;36.63;;
9208;SDS011;4639;48.862;9.188;2023-02-15T05:27:26;114.73;;;34.50;;
9208;SDS011;4639;48.862;9.188;2023-02-15T05:30:10;101.70;;;30.93;;
9208;SDS011;4639;48.862;9.188;2023-02-15T05:32:37;137.67;;;33.17;;
9208;SDS011;4639;48.862;9.188;2023-02-15T05:35:04;131.23;;;33.20;;
9208;SDS011;4639;48.862;9.188;2023-02-15T05:37:31;140.70;;;32.13;;
9208;SDS011;4639;48.862;9.188;2023-02-15T05:39:56;192.03;;;35.37;;
9208;SDS011;4639;48.862;9.188;2023-02-15T05:42:22;103.50;;;32.13;;
9208;SDS011;4639;48.862;9.188;2023-02-15T05:44:47;65.67;;;28.30;;
9208;SDS011;4639;48.862;9.188;2023-02-15T05:47:13;87.60;;;31.53;;
9208;SDS011;4639;48.862;9.188;2023-02-15T05:49:38;285.23;;;38.20;;
9208;SDS011;4639;48.862;9.188;2023-02-15T05:52:04;184.43;;;35.67;;
9208;SDS011;4639;48.862;9.188;2023-02-15T05:54:30;91.97;;;30.63;;
9208;SDS011;4639;48.862;9.188;2023-02-15T05:56:55;115.03;;;33.77;;
9208;SDS011;4639;48.862;9.188;2023-02-15T05:59:21;257.63;;;42.20;;
9208;SDS011;4639;48.862;9.188;2023-02-15T06:01:46;204.07;;;36.47;;
9208;SDS011;4639;48.862;9.188;2023-02-15T06:04:12;218.20;;;40.13;;
9208;SDS011;4639;48.862;9.188;2023-02-15T06:06:37;249.37;;;36.87;;
9208;SDS011;4639;48.862;9.188;2023-02-15T06:09:03;185.60;;;36.73;;
9208;SDS011;4639;48.862;9.188;2023-02-15T06:11:29;181.17;;;38.00;;
9208;SDS011;4639;48.862;9.188;2023-02-15T06:13:54;164.43;;;35.37;;
9208;SDS011;4639;48.862;9.188;2023-02-15T06:16:20;335.83;;;48.67;;
9208;SDS011;4639;48.862;9.188;2023-02-15T06:18:46;257.70;;;42.33;;
9208;SDS011;4639;48.862;9.188;2023-02-15T06:21:11;244.07;;;48.67;;
9208;SDS011;4639;48.862;9.188;2023-02-15T06:23:37;123.03;;;34.33;;
9208;SDS011;4639;48.862;9.188;2023-02-15T06:26:03;92.47;;;34.33;;
9208;SDS011;4639;48.862;9.188;2023-02-15T06:28:32;243.90;;;41.23;;
9208;SDS011;4639;48.862;9.188;2023-02-15T06:30:57;115.83;;;38.37;;
9208;SDS011;4639;48.862;9.188;2023-02-15T06:33:23;125.90;;;35.77;;
9208;SDS011;4639;48.862;9.188;2023-02-15T06:35:48;174.83;;;38.93;;
9208;SDS011;4639;48.862;9.188;2023-02-15T06:38:14;142.77;;;35.27;;
9208;SDS011;4639;48.862;9.188;2023-02-15T06:40:40;95.10;;;34.37;;
9208;SDS011;4639;48.862;9.188;2023-02-15T06:43:05;113.00;;;37.93;;
9208;SDS011;4639;48.862;9.188;2023-02-15T06:45:31;103.30;;;34.63;;
9208;SDS011;4639;48.862;9.188;2023-02-15T06:47:56;97.77;;;32.27;;
9208;SDS011;4639;48.862;9.188;2023-02-15T06:50:22;110.87;;;33.43;;
9208;SDS011;4639;48.862;9.188;2023-02-15T06:52:47;102.80;;;33.87;;
9208;SDS011;4639;48.862;9.188;2023-02-15T06:55:13;134.47;;;33.10;;
9208;SDS011;4639;48.862;9.188;2023-02-15T06:57:39;158.90;;;33.67;;
9208;SDS011;4639;48.862;9.188;2023-02-15T07:00:05;230.00;;;37.53;;
9208;SDS011;4639;48.862;9.188;2023-02-15T07:02:31;159.17;;;34.80;;
9208;SDS011;4639;48.862;9.188;2023-02-15T07:04:57;117.17;;;33.70;;
9208;SDS011;4639;48.862;9.188;2023-02-15T07:07:22;113.80;;;32.00;;
9208;SDS011;4639;48.862;9.188;2023-02-15T07:09:48;166.40;;;35.83;;
9208;SDS011;4639;48.862;9.188;2023-02-15T07:12:14;132.20;;;32.73;;
9208;SDS011;4639;48.862;9.188;2023-02-15T07:14:58;87.53;;;29.87;;
9208;SDS011;4639;48.862;9.188;2023-02-15T07:17:24;231.73;;;34.63;;
9208;SDS011;4639;48.862;9.188;2023-02-15T07:19:53;117.90;;;32.97;;
9208;SDS011;4639;48.862;9.188;2023-02-15T07:22:19;81.50;;;29.63;;
9208;SDS011;4639;48.862;9.188;2023-02-15T07:24:44;102.57;;;29.93;;
9208;SDS011;4639;48.862;9.188;2023-02-15T07:27:10;94.40;;;30.00;;
9208;SDS011;4639;48.862;9.188;2023-02-15T07:29:35;58.20;;;27.40;;
9208;SDS011;4639;48.862;9.188;2023-02-15T07:32:01;103.90;;;28.37;;
9208;SDS011;4639;48.862;9.188;2023-02-15T07:34:27;73.88;;;28.23;;
9208;SDS011;4639;48.862;9.188;2023-02-15T07:36:52;59.97;;;28.03;;
9208;SDS011;4639;48.862;9.188;2023-02-15T07:39:18;103.97;;;30.03;;
9208;SDS011;4639;48.862;9.188;2023-02-15T07:41:44;130.50;;;27.27;;
9208;SDS011;4639;48.862;9.188;2023-02-15T07:44:13;118.67;;;28.57;;
9208;SDS011;4639;48.862;9.188;2023-02-15T07:46:40;75.20;;;27.50;;
9208;SDS011;4639;48.862;9.188;2023-02-15T07:49:06;57.77;;;24.17;;
9208;SDS011;4639;48.862;9.188;2023-02-15T07:51:31;55.47;;;23.67;;
9208;SDS011;4639;48.862;9.188;2023-02-15T07:53:57;88.17;;;25.87;;
9208;SDS011;4639;48.862;9.188;2023-02-15T07:56:22;45.47;;;22.80;;
9208;SDS011;4639;48.862;9.188;2023-02-15T07:58:48;76.73;;;25.63;;
9208;SDS011;4639;48.862;9.188;2023-02-15T08:01:27;80.43;;;25.27;;
9208;SDS011;4639;48.862;9.188;2023-02-15T08:03:57;57.03;;;24.73;;
9208;SDS011;4639;48.862;9.188;2023-02-15T08:06:24;94.60;;;27.27;;
9208;SDS011;4639;48.862;9.188;2023-02-15T08:08:52;53.70;;;25.37;;
9208;SDS011;4639;48.862;9.188;2023-02-15T08:13:54;55.00;;;27.50;;
9208;SDS011;4639;48.862;9.188;2023-02-15T08:16:35;43.45;;;26.83;;
9208;SDS011;4639;48.862;9.188;2023-02-15T08:19:17;61.88;;;33.85;;
9208;SDS011;4639;48.862;9.188;2023-02-15T08:21:51;84.43;;;35.83;;
9208;SDS011;4639;48.862;9.188;2023-02-15T08:24:24;85.43;;;34.60;;
9208;SDS011;4639;48.862;9.188;2023-02-15T08:26:52;74.57;;;34.07;;
9208;SDS011;4639;48.862;9.188;2023-02-15T08:29:19;58.80;;;31.40;;
9208;SDS011;4639;48.862;9.188;2023-02-15T08:31:49;93.90;;;33.80;;
9208;SDS011;4639;48.862;9.188;2023-02-15T08:34:18;80.97;;;32.67;;
9208;SDS011;4639;48.862;9.188;2023-02-15T08:36:45;47.50;;;29.58;;
9208;SDS011;4639;48.862;9.188;2023-02-15T08:39:11;76.60;;;33.67;;
9208;SDS011;4639;48.862;9.188;2023-02-15T08:41:39;55.67;;;31.03;;
9208;SDS011;4639;48.862;9.188;2023-02-15T08:44:07;70.33;;;32.53;;
9208;SDS011;4639;48.862;9.188;2023-02-15T08:46:34;56.27;;;30.37;;
9208;SDS011;4639;48.862;9.188;2023-02-15T08:49:02;69.07;;;32.30;;
9208;SDS011;4639;48.862;9.188;2023-02-15T08:51:29;44.15;;;29.08;;
9208;SDS011;4639;48.862;9.188;2023-02-15T08:53:57;58.87;;;29.83;;
9208;SDS011;4639;48.862;9.188;2023-02-15T08:56:26;62.70;;;33.47;;
9208;SDS011;4639;48.862;9.188;2023-02-15T08:58:53;51.95;;;30.50;;
9208;SDS011;4639;48.862;9.188;2023-02-15T09:01:21;51.13;;;30.27;;
9208;SDS011;4639;48.862;9.188;2023-02-15T09:03:49;43.53;;;28.30;;
9208;SDS011;4639;48.862;9.188;2023-02-15T09:06:19;43.50;;;28.43;;
9208;SDS011;4639;48.862;9.188;2023-02-15T09:08:46;43.83;;;29.17;;
9208;SDS011;4639;48.862;9.188;2023-02-15T09:11:22;50.20;;;29.23;;
9208;SDS011;4639;48.862;9.188;2023-02-15T09:13:53;45.65;;;28.58;;
9208;SDS011;4639;48.862;9.188;2023-02-15T09:16:24;54.55;;;31.60;;
9208;SDS011;4639;48.862;9.188;2023-02-15T09:18:52;43.17;;;28.52;;
9208;SDS011;4639;48.862;9.188;2023-02-15T09:21:19;43.72;;;28.75;;
9208;SDS011;4639;48.862;9.188;2023-02-15T09:23:48;63.45;;;32.08;;
9208;SDS011;4639;48.862;9.188;2023-02-15T09:26:18;45.17;;;29.00;;
9208;SDS011;4639;48.862;9.188;2023-02-15T09:28:46;43.15;;;30.20;;
9208;SDS011;4639;48.862;9.188;2023-02-15T09:31:14;46.60;;;29.50;;
9208;SDS011;4639;48.862;9.188;2023-02-15T09:33:45;59.25;;;30.52;;
9208;SDS011;4639;48.862;9.188;2023-02-15T09:36:33;53.83;;;30.33;;
9208;SDS011;4639;48.862;9.188;2023-02-15T09:39:14;50.10;;;29.83;;
9208;SDS011;4639;48.862;9.188;2023-02-15T09:58:59;33.88;;;24.40;;
9208;SDS011;4639;48.862;9.188;2023-02-15T10:07:20;32.05;;;22.90;;
9208;SDS011;4639;48.862;9.188;2023-02-15T10:10:25;32.22;;;22.52;;
9208;SDS011;4639;48.862;9.188;2023-02-15T10:15:52;24.77;;;19.42;;
9208;SDS011;4639;48.862;9.188;2023-02-15T10:21:02;23.63;;;18.10;;
9208;SDS011;4639;48.862;9.188;2023-02-15T10:23:42;23.92;;;19.25;;
9208;SDS011;4639;48.862;9.188;2023-02-15T10:47:37;20.90;;;18.42;;
9208;SDS011;4639;48.862;9.188;2023-02-15T10:50:30;20.55;;;17.50;;
9208;SDS011;4639;48.862;9.188;2023-02-15T10:58:59;22.50;;;18.17;;
9208;SDS011;4639;48.862;9.188;2023-02-15T11:01:29;21.02;;;16.65;;
9208;SDS011;4639;48.862;9.188;2023-02-15T11:06:27;26.25;;;17.83;;
9208;SDS011;4639;48.862;9.188;2023-02-15T11:08:55;21.90;;;17.50;;
9208;SDS011;4639;48.862;9.188;2023-02-15T11:11:29;20.25;;;17.95;;
9208;SDS011;4639;48.862;9.188;2023-02-15T11:13:59;21.10;;;17.60;;
9208;SDS011;4639;48.862;9.188;2023-02-15T11:16:32;22.65;;;17.80;;
9208;SDS011;4639;48.862;9.188;2023-02-15T11:21:45;21.88;;;17.90;;
9208;SDS011;4639;48.862;9.188;2023-02-15T11:24:17;19.42;;;17.35;;
9208;SDS011;4639;48.862;9.188;2023-02-15T11:32:00;22.48;;;17.15;;
9208;SDS011;4639;48.862;9.188;2023-02-15T11:34:37;22.70;;;17.60;;
9208;SDS011;4639;48.862;9.188;2023-02-15T11:37:12;19.38;;;17.30;;
9208;SDS011;4639;48.862;9.188;2023-02-15T11:39:43;23.25;;;17.13;;
9208;SDS011;4639;48.862;9.188;2023-02-15T11:42:16;19.42;;;16.75;;
9208;SDS011;4639;48.862;9.188;2023-02-15T11:44:50;21.45;;;17.38;;
9208;SDS011;4639;48.862;9.188;2023-02-15T11:47:19;20.15;;;17.95;;
9208;SDS011;4639;48.862;9.188;2023-02-15T11:49:45;25.60;;;20.90;;
9208;SDS011;4639;48.862;9.188;2023-02-15T11:52:12;28.45;;;21.13;;
9208;SDS011;4639;48.862;9.188;2023-02-15T11:54:41;27.38;;;20.73;;
9208;SDS011;4639;48.862;9.188;2023-02-15T11:59:41;29.88;;;23.05;;
9208;SDS011;4639;48.862;9.188;2023-02-15T12:02:17;26.38;;;21.50;;
9208;SDS011;4639;48.862;9.188;2023-02-15T12:04:52;30.33;;;22.00;;
9208;SDS011;4639;48.862;9.188;2023-02-15T12:07:24;33.30;;;23.77;;
9208;SDS011;4639;48.862;9.188;2023-02-15T12:10:13;33.58;;;23.58;;
9208;SDS011;4639;48.862;9.188;2023-02-15T12:12:43;28.90;;;23.52;;
9208;SDS011;4639;48.862;9.188;2023-02-15T12:15:11;34.55;;;23.33;;
9208;SDS011;4639;48.862;9.188;2023-02-15T12:17:38;26.65;;;21.85;;
9208;SDS011;4639;48.862;9.188;2023-02-15T12:20:07;26.83;;;22.13;;
9208;SDS011;4639;48.862;9.188;2023-02-15T12:23:00;33.22;;;23.25;;
9208;SDS011;4639;48.862;9.188;2023-02-15T12:25:40;28.90;;;21.65;;
9208;SDS011;4639;48.862;9.188;2023-02-15T12:28:23;35.72;;;23.00;;
9208;SDS011;4639;48.862;9.188;2023-02-15T12:30:55;29.50;;;22.35;;
9208;SDS011;4639;48.862;9.188;2023-02-15T12:33:35;27.35;;;21.17;;
9208;SDS011;4639;48.862;9.188;2023-02-15T12:36:11;28.23;;;21.00;;
9208;SDS011;4639;48.862;9.188;2023-02-15T12:38:40;27.20;;;20.73;;
9208;SDS011;4639;48.862;9.188;2023-02-15T12:41:25;25.75;;;20.98;;
9208;SDS011;4639;48.862;9.188;2023-02-15T12:44:04;24.42;;;21.20;;
9208;SDS011;4639;48.862;9.188;2023-02-15T12:46:40;27.98;;;22.40;;
9208;SDS011;4639;48.862;9.188;2023-02-15T12:49:19;28.65;;;20.83;;
9208;SDS011;4639;48.862;9.188;2023-02-15T12:56:50;22.67;;;20.13;;
9208;SDS011;4639;48.862;9.188;2023-02-15T12:59:16;25.73;;;21.45;;
9208;SDS011;4639;48.862;9.188;2023-02-15T13:01:48;22.52;;;18.83;;
9208;SDS011;4639;48.862;9.188;2023-02-15T13:06:52;26.35;;;20.20;;
9208;SDS011;4639;48.862;9.188;2023-02-15T13:11:56;26.65;;;20.02;;
9208;SDS011;4639;48.862;9.188;2023-02-15T13:14:33;27.33;;;20.48;;
9208;SDS011;4639;48.862;9.188;2023-02-15T13:17:02;25.55;;;19.55;;
9208;SDS011;4639;48.862;9.188;2023-02-15T13:19:31;28.05;;;20.30;;
9208;SDS011;4639;48.862;9.188;2023-02-15T13:22:02;23.65;;;20.02;;
9208;SDS011;4639;48.862;9.188;2023-02-15T13:24:35;27.13;;;19.63;;
9208;SDS011;4639;48.862;9.188;2023-02-15T13:27:04;24.08;;;19.30;;
9208;SDS011;4639;48.862;9.188;2023-02-15T13:29:31;22.77;;;18.20;;
9208;SDS011;4639;48.862;9.188;2023-02-15T13:32:46;21.02;;;18.83;;
9208;SDS011;4639;48.862;9.188;2023-02-15T13:34:57;26.75;;;18.48;;
9208;SDS011;4639;48.862;9.188;2023-02-15T13:42:59;20.25;;;17.92;;
9208;SDS011;4639;48.862;9.188;2023-02-15T13:59:10;23.50;;;17.40;;
9208;SDS011;4639;48.862;9.188;2023-02-15T14:04:53;22.80;;;16.85;;
9208;SDS011;4639;48.862;9.188;2023-02-15T14:10:43;25.27;;;17.95;;
9208;SDS011;4639;48.862;9.188;2023-02-15T14:13:38;20.13;;;16.52;;
9208;SDS011;4639;48.862;9.188;2023-02-15T14:16:28;21.15;;;16.98;;
9208;SDS011;4639;48.862;9.188;2023-02-15T14:21:43;23.05;;;17.70;;
9208;SDS011;4639;48.862;9.188;2023-02-15T14:24:35;21.38;;;17.13;;
9208;SDS011;4639;48.862;9.188;2023-02-15T14:30:15;19.13;;;15.15;;
9208;SDS011;4639;48.862;9.188;2023-02-15T14:32:46;21.65;;;16.63;;
9208;SDS011;4639;48.862;9.188;2023-02-15T14:35:16;22.45;;;15.93;;
9208;SDS011;4639;48.862;9.188;2023-02-15T14:46:23;21.17;;;16.05;;
9208;SDS011;4639;48.862;9.188;2023-02-15T14:56:41;17.50;;;15.15;;
9208;SDS011;4639;48.862;9.188;2023-02-15T15:01:38;15.88;;;13.63;;
9208;SDS011;4639;48.862;9.188;2023-02-15T15:04:09;21.05;;;14.45;;
9208;SDS011;4639;48.862;9.188;2023-02-15T15:06:40;15.77;;;13.60;;
9208;SDS011;4639;48.862;9.188;2023-02-15T15:12:36;16.27;;;14.23;;
9208;SDS011;4639;48.862;9.188;2023-02-15T15:15:03;21.58;;;14.45;;
9208;SDS011;4639;48.862;9.188;2023-02-15T15:19:58;18.65;;;14.52;;
9208;SDS011;4639;48.862;9.188;2023-02-15T15:22:26;24.58;;;16.50;;
9208;SDS011;4639;48.862;9.188;2023-02-15T15:24:56;20.38;;;15.93;;
9208;SDS011;4639;48.862;9.188;2023-02-15T15:27:40;19.77;;;15.70;;
9208;SDS011;4639;48.862;9.188;2023-02-15T15:42:10;20.08;;;15.65;;
9208;SDS011;4639;48.862;9.188;2023-02-15T15:50:31;21.80;;;16.48;;
9208;SDS011;4639;48.862;9.188;2023-02-15T15:52:58;23.58;;;16.85;;
9208;SDS011;4639;48.862;9.188;2023-02-15T15:55:26;22.65;;;16.33;;
9208;SDS011;4639;48.862;9.188;2023-02-15T15:57:56;24.55;;;16.23;;
9208;SDS011;4639;48.862;9.188;2023-02-15T16:00:33;19.73;;;16.60;;
9208;SDS011;4639;48.862;9.188;2023-02-15T16:03:24;22.38;;;17.08;;
9208;SDS011;4639;48.862;9.188;2023-02-15T16:05:51;21.70;;;17.58;;
9208;SDS011;4639;48.862;9.188;2023-02-15T16:11:24;23.23;;;17.77;;
9208;SDS011;4639;48.862;9.188;2023-02-15T16:13:50;20.98;;;17.13;;
9208;SDS011;4639;48.862;9.188;2023-02-15T16:16:20;22.10;;;17.90;;
9208;SDS011;4639;48.862;9.188;2023-02-15T16:18:48;23.60;;;17.85;;
9208;SDS011;4639;48.862;9.188;2023-02-15T16:21:22;24.67;;;18.08;;
9208;SDS011;4639;48.862;9.188;2023-02-15T16:24:02;26.33;;;21.10;;
9208;SDS011;4639;48.862;9.188;2023-02-15T16:29:35;36.10;;;25.33;;
9208;SDS011;4639;48.862;9.188;2023-02-15T16:32:02;28.83;;;22.25;;
9208;SDS011;4639;48.862;9.188;2023-02-15T16:37:28;27.10;;;21.80;;
9208;SDS011;4639;48.862;9.188;2023-02-15T16:39:58;27.77;;;23.88;;
9208;SDS011;4639;48.862;9.188;2023-02-15T16:42:24;34.20;;;25.17;;
9208;SDS011;4639;48.862;9.188;2023-02-15T16:47:31;33.53;;;26.13;;
9208;SDS011;4639;48.862;9.188;2023-02-15T16:50:01;37.58;;;27.40;;
9208;SDS011;4639;48.862;9.188;2023-02-15T16:52:29;36.08;;;27.75;;
9208;SDS011;4639;48.862;9.188;2023-02-15T16:54:59;32.22;;;25.55;;
9208;SDS011;4639;48.862;9.188;2023-02-15T16:57:27;34.28;;;24.55;;
9208;SDS011;4639;48.862;9.188;2023-02-15T16:59:58;31.13;;;24.80;;
9208;SDS011;4639;48.862;9.188;2023-02-15T17:02:29;40.30;;;27.05;;
9208;SDS011;4639;48.862;9.188;2023-02-15T17:05:07;34.05;;;23.92;;
9208;SDS011;4639;48.862;9.188;2023-02-15T17:07:40;31.92;;;25.20;;
9208;SDS011;4639;48.862;9.188;2023-02-15T17:12:55;37.42;;;26.20;;
9208;SDS011;4639;48.862;9.188;2023-02-15T17:21:25;35.75;;;27.40;;
9208;SDS011;4639;48.862;9.188;2023-02-15T17:23:57;40.13;;;28.40;;
9208;SDS011;4639;48.862;9.188;2023-02-15T17:26:35;44.88;;;28.52;;
9208;SDS011;4639;48.862;9.188;2023-02-15T17:29:09;48.53;;;30.70;;
9208;SDS011;4639;48.862;9.188;2023-02-15T17:31:48;41.05;;;28.40;;
9208;SDS011;4639;48.862;9.188;2023-02-15T17:39:52;32.80;;;25.30;;
9208;SDS011;4639;48.862;9.188;2023-02-15T17:42:18;36.97;;;26.35;;
9208;SDS011;4639;48.862;9.188;2023-02-15T17:44:44;30.58;;;24.45;;
9208;SDS011;4639;48.862;9.188;2023-02-15T17:47:17;32.38;;;24.75;;
9208;SDS011;4639;48.862;9.188;2023-02-15T17:49:47;31.55;;;23.52;;
9208;SDS011;4639;48.862;9.188;2023-02-15T17:52:16;35.20;;;24.75;;
9208;SDS011;4639;48.862;9.188;2023-02-15T17:54:42;30.60;;;24.75;;
9208;SDS011;4639;48.862;9.188;2023-02-15T17:57:27;30.42;;;24.92;;
9208;SDS011;4639;48.862;9.188;2023-02-15T17:59:53;40.33;;;28.02;;
9208;SDS011;4639;48.862;9.188;2023-02-15T18:02:38;35.28;;;25.85;;
9208;SDS011;4639;48.862;9.188;2023-02-15T18:05:22;33.03;;;24.88;;
9208;SDS011;4639;48.862;9.188;2023-02-15T18:08:11;32.30;;;24.20;;
9208;SDS011;4639;48.862;9.188;2023-02-15T18:11:00;32.10;;;23.52;;
9208;SDS011;4639;48.862;9.188;2023-02-15T18:13:44;33.03;;;25.63;;
9208;SDS011;4639;48.862;9.188;2023-02-15T18:16:14;35.72;;;25.63;;
9208;SDS011;4639;48.862;9.188;2023-02-15T18:18:45;33.58;;;26.00;;
9208;SDS011;4639;48.862;9.188;2023-02-15T18:21:11;32.78;;;25.88;;
9208;SDS011;4639;48.862;9.188;2023-02-15T18:23:40;33.70;;;25.15;;
9208;SDS011;4639;48.862;9.188;2023-02-15T18:26:08;34.35;;;24.38;;
9208;SDS011;4639;48.862;9.188;2023-02-15T18:28:41;34.28;;;26.02;;
9208;SDS011;4639;48.862;9.188;2023-02-15T18:31:06;36.83;;;25.27;;
9208;SDS011;4639;48.862;9.188;2023-02-15T18:33:33;31.10;;;25.63;;
9208;SDS011;4639;48.862;9.188;2023-02-15T18:36:03;34.90;;;26.23;;